Time;durP1;ratioP1;P1;durP2;ratioP2;P2;SDS_P1;SDS_P2;PMS_P1;PMS_P2;Temp;Humidity;BMP_temperature;BMP_pressure;BME280_temperature;BME280_humidity;BME280_pressure;Samples;Min_cycle;Max_cycle;Signal;HPM_P1;HPM_P2
2021/06/01 00:00:48;;;;;;;4.88;2.63;;;;;;;;;;6192285;28;20046;-81
2021/06/01 00:03:50;;;;;;;2.10;1.90;;;;;;;;;;6204768;28;20128;-79
2021/06/01 00:06:52;;;;;;;4.18;2.42;;;;;;;;;;6217021;28;20042;-78
2021/06/01 00:09:53;;;;;;;4.28;2.00;;;;;;;;;;6225320;28;20046;-79
2021/06/01 00:12:55;;;;;;;3.35;2.20;;;;;;;;;;6216836;28;20613;-80
2021/06/01 00:15:57;;;;;;;3.90;2.15;;;;;;;;;;6232622;28;20040;-81
2021/06/01 00:18:59;;;;;;;3.40;2.40;;;;;;;;;;6238499;28;20037;-80
2021/06/01 00:22:00;;;;;;;2.50;2.30;;;;;;;;;;6239158;28;20037;-79
2021/06/01 00:25:03;;;;;;;3.65;2.50;;;;;;;;;;6225932;28;20701;-81
2021/06/01 00:28:05;;;;;;;3.70;2.70;;;;;;;;;;6216733;28;20121;-80
2021/06/01 00:31:07;;;;;;;4.78;2.65;;;;;;;;;;6215827;28;20041;-80
2021/06/01 00:34:09;;;;;;;2.28;2.05;;;;;;;;;;6227544;28;20053;-80
2021/06/01 00:37:11;;;;;;;3.28;2.55;;;;;;;;;;6240347;28;20105;-80
2021/06/01 00:40:12;;;;;;;3.75;2.53;;;;;;;;;;6219354;28;20046;-80
2021/06/01 00:43:14;;;;;;;3.40;2.50;;;;;;;;;;6231484;28;20042;-80
2021/06/01 00:46:16;;;;;;;3.25;2.50;;;;;;;;;;6221235;28;20038;-80
2021/06/01 00:49:17;;;;;;;3.50;2.60;;;;;;;;;;6225593;28;20530;-79
2021/06/01 00:52:19;;;;;;;3.42;2.50;;;;;;;;;;6214453;28;20415;-79
2021/06/01 00:55:21;;;;;;;5.22;2.10;;;;;;;;;;6197852;28;20415;-78
2021/06/01 00:58:25;;;;;;;3.75;2.45;;;;;;;;;;6204035;28;20041;-80
2021/06/01 01:01:30;;;;;;;3.65;2.22;;;;;;;;;;6231613;28;20048;-80
2021/06/01 01:04:33;;;;;;;4.13;2.70;;;;;;;;;;6231208;28;20419;-79
2021/06/01 01:07:43;;;;;;;3.83;2.10;;;;;;;;;;6215589;28;20584;-80
2021/06/01 01:10:47;;;;;;;4.03;2.58;;;;;;;;;;6193681;28;20643;-80
2021/06/01 01:13:51;;;;;;;3.65;2.92;;;;;;;;;;6206345;28;20054;-80
2021/06/01 01:16:59;;;;;;;3.63;2.50;;;;;;;;;;6221428;28;20136;-80
2021/06/01 01:20:06;;;;;;;3.92;2.53;;;;;;;;;;6241030;28;20049;-81
2021/06/01 01:23:14;;;;;;;6.30;2.40;;;;;;;;;;6222466;28;20124;-80
2021/06/01 01:26:44;;;;;;;3.80;2.33;;;;;;;;;;6190180;28;20415;-81
2021/06/01 01:29:50;;;;;;;3.15;2.50;;;;;;;;;;6190988;28;20048;-80
2021/06/01 01:33:19;;;;;;;4.22;2.47;;;;;;;;;;6212825;28;20042;-79
2021/06/01 01:36:21;;;;;;;2.33;1.92;;;;;;;;;;6208412;28;20050;-78
2021/06/01 01:39:24;;;;;;;4.57;2.58;;;;;;;;;;6221285;28;20087;-80
2021/06/01 01:42:36;;;;;;;6.68;2.75;;;;;;;;;;6214523;28;20495;-80
2021/06/01 01:45:39;;;;;;;4.38;2.75;;;;;;;;;;6214927;28;20045;-79
2021/06/01 01:52:00;;;;;;;3.67;2.45;;;;;;;;;;6239381;28;20502;-81
2021/06/01 01:55:05;;;;;;;5.22;2.72;;;;;;;;;;6230352;28;20041;-80
2021/06/01 01:58:07;;;;;;;3.33;2.60;;;;;;;;;;6213040;28;20056;-82
2021/06/01 02:01:10;;;;;;;4.07;2.72;;;;;;;;;;6214392;28;20466;-82
2021/06/01 02:04:12;;;;;;;5.35;3.15;;;;;;;;;;6239248;28;20529;-82
2021/06/01 02:07:14;;;;;;;2.97;2.38;;;;;;;;;;6222380;28;20129;-81
2021/06/01 02:10:15;;;;;;;3.35;2.10;;;;;;;;;;6228553;28;20041;-80
2021/06/01 02:13:17;;;;;;;4.03;2.60;;;;;;;;;;6238836;28;20530;-81
2021/06/01 02:16:19;;;;;;;6.53;2.55;;;;;;;;;;6244380;28;20187;-80
2021/06/01 02:19:22;;;;;;;3.20;2.60;;;;;;;;;;6236320;28;20053;-81
2021/06/01 02:26:01;;;;;;;4.22;3.00;;;;;;;;;;6239365;28;20076;-81
2021/06/01 02:29:34;;;;;;;4.68;3.20;;;;;;;;;;6242526;28;20048;-81
2021/06/01 02:32:41;;;;;;;3.08;2.25;;;;;;;;;;6232636;28;20108;-81
2021/06/01 02:35:43;;;;;;;2.78;2.40;;;;;;;;;;6243596;28;20037;-81
2021/06/01 02:38:45;;;;;;;3.47;2.42;;;;;;;;;;6236843;28;20048;-81
2021/06/01 02:41:50;;;;;;;4.15;2.58;;;;;;;;;;6219439;28;20046;-80
2021/06/01 02:44:52;;;;;;;3.60;2.53;;;;;;;;;;6217453;28;20527;-80
2021/06/01 02:47:54;;;;;;;4.22;2.60;;;;;;;;;;6216649;28;20049;-80
2021/06/01 02:50:58;;;;;;;3.42;2.80;;;;;;;;;;6216472;28;20042;-81
2021/06/01 02:54:00;;;;;;;;;;;;;;;;;;6218495;28;20042;-81
2021/06/01 02:57:01;;;;;;;4.75;2.70;;;;;;;;;;6218884;28;20063;-80
2021/06/01 03:00:06;;;;;;;5.00;2.72;;;;;;;;;;6216868;28;20052;-80
2021/06/01 03:03:10;;;;;;;7.07;3.00;;;;;;;;;;6225518;28;20037;-80
2021/06/01 03:06:12;;;;;;;4.28;2.60;;;;;;;;;;6232127;28;20049;-81
2021/06/01 03:09:13;;;;;;;4.45;2.70;;;;;;;;;;6222995;28;20041;-81
2021/06/01 03:12:37;;;;;;;3.63;2.92;;;;;;;;;;6222437;28;20441;-80
2021/06/01 03:15:39;;;;;;;;;;;;;;;;;;6236091;28;20045;-82
2021/06/01 03:18:41;;;;;;;3.35;2.30;;;;;;;;;;6236394;28;19929;-81
2021/06/01 03:21:46;;;;;;;4.97;2.83;;;;;;;;;;6242191;28;20498;-80
2021/06/01 03:24:47;;;;;;;5.28;2.70;;;;;;;;;;6226404;28;20049;-81
2021/06/01 03:27:49;;;;;;;5.63;3.17;;;;;;;;;;6215592;28;20053;-80
2021/06/01 03:30:51;;;;;;;4.28;3.17;;;;;;;;;;6217446;28;20060;-80
2021/06/01 03:33:55;;;;;;;4.10;3.00;;;;;;;;;;6223464;28;20061;-80
2021/06/01 03:36:59;;;;;;;3.13;2.35;;;;;;;;;;6225556;28;20522;-80
2021/06/01 03:40:01;;;;;;;4.32;2.85;;;;;;;;;;6207342;28;20042;-81
2021/06/01 03:43:03;;;;;;;5.13;2.75;;;;;;;;;;6218049;28;20042;-81
2021/06/01 03:46:05;;;;;;;5.57;3.33;;;;;;;;;;6226809;28;20051;-81
2021/06/01 03:49:07;;;;;;;6.30;3.60;;;;;;;;;;6217270;28;20521;-80
2021/06/01 03:52:09;;;;;;;8.55;2.95;;;;;;;;;;6235008;28;20072;-80
2021/06/01 03:55:11;;;;;;;6.40;3.13;;;;;;;;;;6259755;28;20128;-82
2021/06/01 03:58:13;;;;;;;5.55;3.10;;;;;;;;;;6242181;28;20256;-80
2021/06/01 04:01:15;;;;;;;3.75;3.28;;;;;;;;;;6240127;28;20045;-79
2021/06/01 04:04:17;;;;;;;4.97;3.40;;;;;;;;;;6240800;28;20045;-80
2021/06/01 04:07:18;;;;;;;8.25;3.50;;;;;;;;;;6223441;28;20052;-79
2021/06/01 04:10:21;;;;;;;5.03;3.42;;;;;;;;;;6233573;28;20503;-79
2021/06/01 04:13:22;;;;;;;4.03;3.28;;;;;;;;;;6243285;28;20649;-79
2021/06/01 04:16:24;;;;;;;5.00;3.30;;;;;;;;;;6242015;28;20459;-80
2021/06/01 04:19:26;;;;;;;5.90;4.40;;;;;;;;;;6219715;28;20411;-79
2021/06/01 04:22:28;;;;;;;6.78;3.97;;;;;;;;;;6193090;28;20415;-78
2021/06/01 04:25:29;;;;;;;5.80;3.55;;;;;;;;;;6229342;28;20048;-79
2021/06/01 04:28:31;;;;;;;3.70;2.80;;;;;;;;;;6242070;28;20049;-79
2021/06/01 04:31:32;;;;;;;4.80;3.70;;;;;;;;;;6240735;28;20053;-79
2021/06/01 04:34:34;;;;;;;5.07;3.40;;;;;;;;;;6191308;28;20129;-80
2021/06/01 04:37:36;;;;;;;5.05;3.25;;;;;;;;;;6191792;28;20042;-79
2021/06/01 04:40:38;;;;;;;6.03;3.45;;;;;;;;;;6231551;28;20124;-81
2021/06/01 04:43:40;;;;;;;4.25;3.17;;;;;;;;;;6241040;28;20048;-81
2021/06/01 04:46:41;;;;;;;3.22;2.50;;;;;;;;;;6229945;28;20177;-81
2021/06/01 04:49:43;;;;;;;5.80;3.30;;;;;;;;;;6214736;28;20046;-81
2021/06/01 04:52:46;;;;;;;4.80;3.50;;;;;;;;;;6216152;28;20046;-80
2021/06/01 04:55:48;;;;;;;;;;;;;;;;;;6216401;28;20081;-81
2021/06/01 04:58:51;;;;;;;4.72;3.38;;;;;;;;;;6215289;28;20638;-81
2021/06/01 05:01:53;;;;;;;4.97;3.17;;;;;;;;;;6215583;28;20038;-81
2021/06/01 05:04:55;;;;;;;4.80;3.42;;;;;;;;;;6237981;28;20197;-80
2021/06/01 05:07:56;;;;;;;5.70;3.55;;;;;;;;;;6215481;28;20050;-79
2021/06/01 05:10:58;;;;;;;5.20;3.58;;;;;;;;;;6215322;28;20113;-81
2021/06/01 05:13:59;;;;;;;6.47;3.90;;;;;;;;;;6216437;28;20060;-80
2021/06/01 05:17:01;;;;;;;6.68;4.18;;;;;;;;;;6216250;28;20098;-79
2021/06/01 05:20:05;;;;;;;6.95;4.35;;;;;;;;;;6237577;28;20045;-79
2021/06/01 05:23:06;;;;;;;6.45;3.90;;;;;;;;;;6240087;28;20588;-81
2021/06/01 05:26:08;;;;;;;5.13;3.50;;;;;;;;;;6214988;28;20093;-80
2021/06/01 05:29:09;;;;;;;6.07;4.25;;;;;;;;;;6230497;28;20535;-80
2021/06/01 05:35:22;;;;;;;6.50;4.43;;;;;;;;;;6192579;28;20096;-82
2021/06/01 05:38:26;;;;;;;6.57;3.80;;;;;;;;;;6192708;28;20118;-82
2021/06/01 05:41:28;;;;;;;6.43;4.00;;;;;;;;;;6237366;28;20037;-81
2021/06/01 05:44:29;;;;;;;6.38;3.60;;;;;;;;;;6237949;28;20414;-80
2021/06/01 05:47:31;;;;;;;5.78;3.55;;;;;;;;;;6258177;28;20051;-81
2021/06/01 05:50:34;;;;;;;6.38;4.38;;;;;;;;;;6245453;28;20119;-80
2021/06/01 05:53:36;;;;;;;7.63;3.80;;;;;;;;;;6246286;28;20049;-79
2021/06/01 05:56:37;;;;;;;3.75;3.17;;;;;;;;;;6268729;28;20047;-79
2021/06/01 05:59:39;;;;;;;6.10;4.03;;;;;;;;;;6250696;28;20065;-79
2021/06/01 06:02:41;;;;;;;6.78;4.38;;;;;;;;;;6260641;28;20052;-80
2021/06/01 06:05:47;;;;;;;9.90;4.28;;;;;;;;;;6244403;28;20046;-80
2021/06/01 06:08:49;;;;;;;6.38;3.95;;;;;;;;;;6243377;28;20053;-80
2021/06/01 06:11:50;;;;;;;6.18;4.18;;;;;;;;;;6239929;28;20124;-79
2021/06/01 06:14:52;;;;;;;7.65;4.40;;;;;;;;;;6241366;28;20060;-81
2021/06/01 06:18:15;;;;;;;8.70;4.57;;;;;;;;;;6239962;28;20045;-81
2021/06/01 06:21:16;;;;;;;8.98;4.82;;;;;;;;;;6215758;28;20055;-81
2021/06/01 06:24:18;;;;;;;6.90;3.88;;;;;;;;;;6250262;28;20046;-80
2021/06/01 06:27:19;;;;;;;7.28;4.47;;;;;;;;;;6233329;28;20061;-81
2021/06/01 06:30:22;;;;;;;6.68;4.35;;;;;;;;;;6250865;28;20038;-80
2021/06/01 06:33:24;;;;;;;8.02;4.05;;;;;;;;;;6234555;28;20063;-81
2021/06/01 06:36:26;;;;;;;5.38;4.05;;;;;;;;;;6241871;28;20068;-81
2021/06/01 06:39:27;;;;;;;6.72;3.80;;;;;;;;;;6250824;28;20132;-80
2021/06/01 06:42:29;;;;;;;12.13;4.18;;;;;;;;;;6263873;28;20578;-81
2021/06/01 06:45:31;;;;;;;7.93;3.83;;;;;;;;;;6265781;28;20029;-78
2021/06/01 06:48:33;;;;;;;6.60;4.05;;;;;;;;;;6234734;28;20127;-79
2021/06/01 06:51:39;;;;;;;6.75;3.85;;;;;;;;;;6254858;28;20053;-79
2021/06/01 06:54:41;;;;;;;9.35;4.25;;;;;;;;;;6249186;28;20042;-79
2021/06/01 06:57:43;;;;;;;6.50;3.80;;;;;;;;;;6216099;28;20049;-82
2021/06/01 07:00:45;;;;;;;5.57;4.00;;;;;;;;;;6215226;28;20053;-81
2021/06/01 07:03:47;;;;;;;5.68;3.53;;;;;;;;;;6245667;28;20425;-78
2021/06/01 07:06:49;;;;;;;6.70;4.20;;;;;;;;;;6251407;28;20049;-80
2021/06/01 07:09:50;;;;;;;5.53;4.00;;;;;;;;;;6253357;28;20100;-79
2021/06/01 07:12:52;;;;;;;6.63;3.80;;;;;;;;;;6264753;28;20671;-78
2021/06/01 07:15:55;;;;;;;6.38;3.63;;;;;;;;;;6268286;28;20092;-79
2021/06/01 07:18:56;;;;;;;4.78;3.67;;;;;;;;;;6270819;28;20506;-79
2021/06/01 07:21:58;;;;;;;3.92;3.42;;;;;;;;;;6271347;28;20490;-79
2021/06/01 07:25:00;;;;;;;4.32;3.53;;;;;;;;;;6270877;28;20443;-78
2021/06/01 07:28:02;;;;;;;4.90;3.42;;;;;;;;;;6274650;28;20056;-79
2021/06/01 07:31:05;;;;;;;3.70;3.40;;;;;;;;;;6268321;28;20061;-79
2021/06/01 07:34:06;;;;;;;4.75;3.40;;;;;;;;;;6268252;28;20051;-81
2021/06/01 07:37:08;;;;;;;4.68;3.38;;;;;;;;;;6269022;28;20074;-81
2021/06/01 07:40:10;;;;;;;4.35;3.55;;;;;;;;;;6265509;28;20028;-82
2021/06/01 07:43:11;;;;;;;3.45;3.15;;;;;;;;;;6267595;28;20045;-82
2021/06/01 07:46:13;;;;;;;3.55;3.25;;;;;;;;;;6242099;28;20045;-79
2021/06/01 07:49:14;;;;;;;4.40;3.30;;;;;;;;;;6239774;28;20541;-80
2021/06/01 07:52:16;;;;;;;4.55;3.97;;;;;;;;;;6245953;28;20046;-81
2021/06/01 07:55:18;;;;;;;3.30;3.00;;;;;;;;;;6213167;28;20042;-83
2021/06/01 07:58:20;;;;;;;4.68;3.10;;;;;;;;;;6212336;28;20042;-82
2021/06/01 08:01:21;;;;;;;5.80;3.20;;;;;;;;;;6227411;28;20080;-82
2021/06/01 08:04:23;;;;;;;3.15;2.85;;;;;;;;;;6211876;28;20054;-82
2021/06/01 08:07:25;;;;;;;3.42;2.95;;;;;;;;;;6214893;28;20900;-83
2021/06/01 08:10:28;;;;;;;3.30;3.00;;;;;;;;;;6209973;28;20127;-82
2021/06/01 08:13:29;;;;;;;;;;;;;;;;;;6213143;28;20507;-82
2021/06/01 08:16:32;;;;;;;4.60;2.65;;;;;;;;;;6209946;28;19928;-81
2021/06/01 08:19:36;;;;;;;3.35;3.05;;;;;;;;;;6226674;28;20048;-83
2021/06/01 08:22:38;;;;;;;2.92;2.72;;;;;;;;;;6225529;28;20045;-81
2021/06/01 08:25:40;;;;;;;3.67;2.90;;;;;;;;;;6222919;28;20041;-83
2021/06/01 08:28:41;;;;;;;2.75;2.55;;;;;;;;;;6217326;28;20048;-83
2021/06/01 08:31:44;;;;;;;3.75;3.00;;;;;;;;;;6219698;28;20038;-82
2021/06/01 08:34:45;;;;;;;;;;;;;;;;;;6242978;28;20056;-81
2021/06/01 08:37:47;;;;;;;3.22;2.50;;;;;;;;;;6243046;28;20051;-82
2021/06/01 08:40:51;;;;;;;3.00;2.67;;;;;;;;;;6239006;28;20045;-81
2021/06/01 08:43:54;;;;;;;3.42;3.00;;;;;;;;;;6241316;28;20157;-81
2021/06/01 08:46:56;;;;;;;2.70;2.50;;;;;;;;;;6238629;28;20072;-83
2021/06/01 08:49:58;;;;;;;;;;;;;;;;;;6255111;28;20105;-81
2021/06/01 08:53:00;;;;;;;2.97;2.75;;;;;;;;;;6263944;28;20130;-79
2021/06/01 08:56:03;;;;;;;3.47;2.63;;;;;;;;;;6236715;28;20046;-81
2021/06/01 08:59:05;;;;;;;3.65;2.60;;;;;;;;;;6248055;28;20136;-80
2021/06/01 09:02:07;;;;;;;3.25;2.70;;;;;;;;;;6235776;28;20044;-80
2021/06/01 09:05:12;;;;;;;2.90;2.63;;;;;;;;;;6246085;28;20046;-80
2021/06/01 09:08:13;;;;;;;4.82;2.90;;;;;;;;;;6230828;28;20052;-81
2021/06/01 09:21:42;;;;;;;2.80;2.60;;;;;;;;;;6243048;28;20077;-79
2021/06/01 09:24:59;;;;;;;4.55;2.53;;;;;;;;;;6229237;28;20070;-79
2021/06/01 09:28:03;;;;;;;2.40;2.20;;;;;;;;;;6233129;28;20113;-80
2021/06/01 09:31:15;;;;;;;2.35;2.10;;;;;;;;;;6233456;28;20100;-80
2021/06/01 09:34:22;;;;;;;;;;;;;;;;;;6212336;28;20471;-80
2021/06/01 09:37:35;;;;;;;2.85;2.42;;;;;;;;;;6209188;28;19922;-78
2021/06/01 09:40:37;;;;;;;3.75;2.80;;;;;;;;;;6220460;28;20752;-80
2021/06/01 09:43:52;;;;;;;;;;;;;;;;;;6214649;28;20044;-79
2021/06/01 09:46:54;;;;;;;2.80;2.60;;;;;;;;;;6233073;28;19925;-81
2021/06/01 09:50:11;;;;;;;3.35;2.40;;;;;;;;;;6220305;28;20060;-80
2021/06/01 09:53:34;;;;;;;2.90;2.60;;;;;;;;;;6225233;28;20046;-80
2021/06/01 09:56:36;;;;;;;3.00;2.70;;;;;;;;;;6205954;28;20050;-80
2021/06/01 09:59:38;;;;;;;2.67;2.47;;;;;;;;;;6207690;28;20094;-80
2021/06/01 10:02:40;;;;;;;3.85;2.70;;;;;;;;;;6230212;28;20080;-80
2021/06/01 10:05:43;;;;;;;2.97;2.50;;;;;;;;;;6250448;28;20096;-79
2021/06/01 10:08:52;;;;;;;2.85;2.65;;;;;;;;;;6247755;28;20051;-78
2021/06/01 10:11:58;;;;;;;4.30;2.40;;;;;;;;;;6251649;28;20117;-80
2021/06/01 10:15:00;;;;;;;2.60;2.40;;;;;;;;;;6223010;28;20050;-79
2021/06/01 10:18:08;;;;;;;2.90;2.50;;;;;;;;;;6229363;28;20057;-80
2021/06/01 10:21:18;;;;;;;3.50;2.40;;;;;;;;;;6251139;28;20836;-79
2021/06/01 10:24:19;;;;;;;2.50;2.30;;;;;;;;;;6250410;28;20391;-79
2021/06/01 10:27:21;;;;;;;2.50;2.30;;;;;;;;;;6252018;28;20042;-81
2021/06/01 10:30:24;;;;;;;2.70;2.50;;;;;;;;;;6249488;28;20080;-79
2021/06/01 10:33:27;;;;;;;;;;;;;;;;;;6225962;28;20038;-80
2021/06/01 10:53:20;;;;;;;4.32;2.72;;;;;;;;;;6219738;28;20045;-82
2021/06/01 10:56:22;;;;;;;2.75;2.55;;;;;;;;;;6195532;28;20702;-81
2021/06/01 10:59:48;;;;;;;3.47;2.60;;;;;;;;;;6194138;28;20045;-78
2021/06/01 11:03:03;;;;;;;3.63;2.97;;;;;;;;;;6191353;28;20050;-80
2021/06/01 11:06:09;;;;;;;2.95;2.67;;;;;;;;;;6219543;28;20125;-79
2021/06/01 11:09:37;;;;;;;3.10;2.80;;;;;;;;;;6222288;28;20129;-80
2021/06/01 11:12:40;;;;;;;3.22;2.80;;;;;;;;;;6211708;28;20125;-82
2021/06/01 11:15:42;;;;;;;3.25;2.80;;;;;;;;;;6209793;28;20068;-81
2021/06/01 11:18:51;;;;;;;3.22;2.95;;;;;;;;;;6208096;28;20046;-81
2021/06/01 11:22:06;;;;;;;3.17;2.67;;;;;;;;;;6213869;28;20045;-82
2021/06/01 11:35:22;;;;;;;2.97;2.60;;;;;;;;;;6236435;28;20049;-81
2021/06/01 11:45:03;;;;;;;2.75;2.53;;;;;;;;;;6246925;28;20129;-79
2021/06/01 11:50:59;;;;;;;2.70;2.50;;;;;;;;;;6237472;28;20454;-81
2021/06/01 11:51:30;;;;;;;3.10;2.80;;;;;;;;;;6215265;28;20373;-84
2021/06/01 11:54:32;;;;;;;;;;;;;;;;;;6236364;28;20077;-82
2021/06/01 12:02:00;;;;;;;2.80;2.58;;;;;;;;;;6253167;28;19978;-83
2021/06/01 12:04:23;;;;;;;3.83;2.80;;;;;;;;;;6250806;28;20060;-83
2021/06/01 12:17:49;;;;;;;4.05;2.92;;;;;;;;;;6243308;28;20048;-79
2021/06/01 12:20:52;;;;;;;2.67;2.47;;;;;;;;;;6267540;28;20055;-80
2021/06/01 12:24:09;;;;;;;3.90;2.58;;;;;;;;;;6260235;28;20180;-80
2021/06/01 12:27:25;;;;;;;4.15;3.05;;;;;;;;;;6240035;28;20069;-80
2021/06/01 12:30:59;;;;;;;3.90;3.10;;;;;;;;;;6229982;28;20041;-80
2021/06/01 12:34:01;;;;;;;3.38;2.83;;;;;;;;;;6218114;28;20045;-78
2021/06/01 13:20:07;;;;;;;4.05;2.75;;;;;;;;;;6201758;28;20128;-77
2021/06/01 13:30:25;;;;;;;2.47;2.28;;;;;;;;;;6183643;28;20061;-78
2021/06/01 13:39:54;;;;;;;2.70;2.17;;;;;;;;;;6234593;28;20188;-77
2021/06/01 13:46:35;;;;;;;2.10;1.90;;;;;;;;;;6227323;28;20121;-77
2021/06/01 13:49:41;;;;;;;3.17;2.33;;;;;;;;;;6222093;28;20096;-77
2021/06/01 13:53:06;;;;;;;3.17;2.20;;;;;;;;;;6261029;28;20087;-77
2021/06/01 13:56:13;;;;;;;3.78;2.17;;;;;;;;;;6258666;28;20048;-77
2021/06/01 13:59:34;;;;;;;2.20;2.00;;;;;;;;;;6260546;28;20037;-77
2021/06/01 14:36:06;;;;;;;3.35;2.08;;;;;;;;;;6238455;28;20064;-79
2021/06/01 15:49:34;;;;;;;2.65;2.45;;;;;;;;;;6231923;28;20526;-78
2021/06/01 16:23:10;;;;;;;3.00;2.80;;;;;;;;;;6253251;28;20048;-78
2021/06/01 17:06:36;;;;;;;4.13;2.40;;;;;;;;;;6229437;28;20042;-79
2021/06/01 17:13:06;;;;;;;2.97;2.45;;;;;;;;;;6257963;28;20057;-80
2021/06/01 17:16:13;;;;;;;3.05;2.50;;;;;;;;;;6247220;28;20065;-78
2021/06/01 17:22:53;;;;;;;6.20;2.70;;;;;;;;;;6279204;28;20152;-79
2021/06/01 17:36:04;;;;;;;2.75;2.50;;;;;;;;;;6242996;28;20166;-79
2021/06/01 17:39:06;;;;;;;2.80;2.60;;;;;;;;;;6264278;28;20049;-79
2021/06/01 17:42:11;;;;;;;3.25;2.85;;;;;;;;;;6247571;28;20087;-80
2021/06/01 17:45:15;;;;;;;3.97;2.55;;;;;;;;;;6251859;28;20136;-79
2021/06/01 17:48:38;;;;;;;3.28;2.50;;;;;;;;;;6251964;28;20092;-79
2021/06/01 17:51:43;;;;;;;2.42;2.22;;;;;;;;;;6239184;28;20061;-80
2021/06/01 17:54:47;;;;;;;3.78;2.65;;;;;;;;;;6242936;28;20042;-80
2021/06/01 17:57:49;;;;;;;2.55;2.35;;;;;;;;;;6240726;28;20125;-79
2021/06/01 18:00:52;;;;;;;3.05;2.80;;;;;;;;;;6253627;28;20412;-79
2021/06/01 18:07:11;;;;;;;4.47;2.60;;;;;;;;;;6226890;28;20164;-79
2021/06/01 19:00:10;;;;;;;3.40;2.05;;;;;;;;;;6194095;28;20046;-80
2021/06/01 19:44:15;;;;;;;5.35;3.15;;;;;;;;;;6244040;28;20143;-79
2021/06/01 19:50:49;;;;;;;7.43;3.00;;;;;;;;;;6230200;28;20133;-78
2021/06/01 19:53:51;;;;;;;3.38;2.80;;;;;;;;;;6206610;28;20056;-79
2021/06/01 19:56:53;;;;;;;7.43;2.83;;;;;;;;;;6244620;28;20056;-78
2021/06/01 19:59:56;;;;;;;5.93;2.60;;;;;;;;;;6246473;28;20049;-78
2021/06/01 20:03:00;;;;;;;4.85;2.70;;;;;;;;;;6246872;28;20690;-79
2021/06/01 20:06:10;;;;;;;4.22;2.85;;;;;;;;;;6237082;28;20048;-77
2021/06/01 20:09:19;;;;;;;4.03;3.05;;;;;;;;;;6222140;28;20045;-79
2021/06/01 20:12:21;;;;;;;4.82;2.80;;;;;;;;;;6218568;28;20055;-79
2021/06/01 20:15:31;;;;;;;4.60;2.80;;;;;;;;;;6220924;28;20121;-78
2021/06/01 20:18:39;;;;;;;3.88;2.80;;;;;;;;;;6226282;28;20049;-79
2021/06/01 20:21:44;;;;;;;4.22;2.58;;;;;;;;;;6241791;28;20172;-79
2021/06/01 20:24:46;;;;;;;4.30;2.88;;;;;;;;;;6230174;28;20038;-79
2021/06/01 20:27:52;;;;;;;3.28;2.65;;;;;;;;;;6217083;28;20046;-77
2021/06/01 20:30:59;;;;;;;3.75;3.00;;;;;;;;;;6217618;28;20345;-77
2021/06/01 20:34:03;;;;;;;6.40;2.70;;;;;;;;;;6240983;28;20053;-78
2021/06/01 20:37:05;;;;;;;4.03;2.95;;;;;;;;;;6222082;28;20042;-77
2021/06/01 20:40:08;;;;;;;6.37;2.70;;;;;;;;;;6244483;28;20502;-77
2021/06/01 20:43:16;;;;;;;6.13;2.97;;;;;;;;;;6241105;28;20045;-78
2021/06/01 20:46:17;;;;;;;5.25;2.72;;;;;;;;;;6242130;28;20210;-78
2021/06/01 20:49:20;;;;;;;3.40;2.90;;;;;;;;;;6270396;28;20067;-77
2021/06/01 20:52:22;;;;;;;4.30;2.92;;;;;;;;;;6226215;28;20042;-79
2021/06/01 20:55:25;;;;;;;4.28;2.67;;;;;;;;;;6244077;28;20045;-77
2021/06/01 20:58:36;;;;;;;;;;;;;;;;;;6246373;28;20120;-79
2021/06/01 21:01:38;;;;;;;4.35;3.15;;;;;;;;;;6273897;28;19952;-78
2021/06/01 21:04:40;;;;;;;5.22;3.50;;;;;;;;;;6263845;28;20144;-77
2021/06/01 21:07:43;;;;;;;5.50;3.23;;;;;;;;;;6270915;28;20049;-78
2021/06/01 21:10:45;;;;;;;;;;;;;;;;;;6257822;28;20530;-78
2021/06/01 21:13:48;;;;;;;3.97;2.78;;;;;;;;;;6275888;28;20007;-77
2021/06/01 21:16:50;;;;;;;6.13;2.95;;;;;;;;;;6273081;28;20044;-78
2021/06/01 21:19:51;;;;;;;3.80;2.70;;;;;;;;;;6249809;28;20603;-78
2021/06/01 21:22:54;;;;;;;2.53;2.33;;;;;;;;;;6249572;28;20045;-79
2021/06/01 21:25:55;;;;;;;3.15;2.58;;;;;;;;;;6219110;28;20100;-79
2021/06/01 21:28:57;;;;;;;2.70;2.47;;;;;;;;;;6202906;28;20106;-79
2021/06/01 21:32:14;;;;;;;7.18;2.72;;;;;;;;;;6201999;28;20563;-78
2021/06/01 21:35:16;;;;;;;4.10;2.90;;;;;;;;;;6226431;28;20044;-79
2021/06/01 21:38:28;;;;;;;2.72;2.30;;;;;;;;;;6224599;28;20038;-78
2021/06/01 21:41:30;;;;;;;3.53;2.58;;;;;;;;;;6247665;28;20041;-80
2021/06/01 21:44:38;;;;;;;3.92;2.45;;;;;;;;;;6227324;28;20061;-80
2021/06/01 21:47:47;;;;;;;4.15;2.88;;;;;;;;;;6225832;28;20045;-80
2021/06/01 21:50:51;;;;;;;3.35;2.35;;;;;;;;;;6238263;28;20434;-79
2021/06/01 21:53:55;;;;;;;3.45;2.60;;;;;;;;;;6229955;28;20045;-80
2021/06/01 21:56:57;;;;;;;4.45;2.58;;;;;;;;;;6250940;28;20045;-80
2021/06/01 22:00:00;;;;;;;3.65;2.65;;;;;;;;;;6254784;28;20200;-80
2021/06/01 22:03:04;;;;;;;3.90;2.85;;;;;;;;;;6254571;28;20462;-80
2021/06/01 22:06:06;;;;;;;4.80;2.90;;;;;;;;;;6247049;28;20038;-81
2021/06/01 22:09:08;;;;;;;5.83;3.47;;;;;;;;;;6237012;28;20101;-81
2021/06/01 22:12:10;;;;;;;5.40;2.50;;;;;;;;;;6254902;28;20397;-80
2021/06/01 22:15:40;;;;;;;4.13;2.90;;;;;;;;;;6252721;28;20048;-79
2021/06/01 22:18:48;;;;;;;4.32;2.88;;;;;;;;;;6233651;28;20464;-80
2021/06/01 22:21:50;;;;;;;3.13;2.60;;;;;;;;;;6248236;28;20055;-81
2021/06/01 22:24:54;;;;;;;3.53;2.40;;;;;;;;;;6227509;28;20053;-80
2021/06/01 22:27:56;;;;;;;4.82;3.05;;;;;;;;;;6219312;28;20463;-79
2021/06/01 22:30:59;;;;;;;4.43;2.70;;;;;;;;;;6237269;28;20072;-79
2021/06/01 22:34:01;;;;;;;3.50;2.55;;;;;;;;;;6228268;28;20041;-79
2021/06/01 22:37:03;;;;;;;3.92;2.72;;;;;;;;;;6247835;28;20049;-80
2021/06/01 22:40:05;;;;;;;2.65;2.42;;;;;;;;;;6245048;28;20037;-79
2021/06/01 22:43:11;;;;;;;3.28;2.42;;;;;;;;;;6246893;28;20041;-79
2021/06/01 22:46:15;;;;;;;3.17;2.40;;;;;;;;;;6249195;28;20132;-79
2021/06/01 22:49:16;;;;;;;2.80;2.25;;;;;;;;;;6214200;28;20045;-79
2021/06/01 22:52:18;;;;;;;3.97;2.80;;;;;;;;;;6221612;28;20042;-79
2021/06/01 22:55:20;;;;;;;2.83;2.53;;;;;;;;;;6205396;28;20049;-79
2021/06/01 22:58:23;;;;;;;5.97;3.03;;;;;;;;;;6202945;28;20042;-80
2021/06/01 23:01:28;;;;;;;3.42;2.60;;;;;;;;;;6214304;28;20126;-78
2021/06/01 23:04:33;;;;;;;5.15;2.83;;;;;;;;;;6197825;28;20042;-79
2021/06/01 23:07:35;;;;;;;4.13;3.00;;;;;;;;;;6220530;28;20066;-79
2021/06/01 23:10:37;;;;;;;3.80;3.00;;;;;;;;;;6242242;28;20045;-79
2021/06/01 23:13:39;;;;;;;3.60;2.88;;;;;;;;;;6248570;28;20045;-79
2021/06/01 23:16:42;;;;;;;5.28;3.10;;;;;;;;;;6248080;28;20045;-79
2021/06/01 23:19:44;;;;;;;3.20;2.57;;;;;;;;;;6219644;28;20062;-79
2021/06/01 23:22:45;;;;;;;3.70;2.90;;;;;;;;;;6202319;28;20046;-79
2021/06/01 23:25:48;;;;;;;2.97;2.58;;;;;;;;;;6201066;28;20079;-79
2021/06/01 23:28:50;;;;;;;3.33;2.45;;;;;;;;;;6200238;28;20089;-79
2021/06/01 23:31:56;;;;;;;3.33;2.75;;;;;;;;;;6210375;28;20045;-80
2021/06/01 23:34:57;;;;;;;4.27;3.00;;;;;;;;;;6250064;28;20127;-80
2021/06/01 23:38:44;;;;;;;5.32;2.78;;;;;;;;;;6250654;28;20037;-79
2021/06/01 23:41:48;;;;;;;7.50;2.80;;;;;;;;;;6246115;28;20051;-80
2021/06/01 23:44:51;;;;;;;3.67;2.60;;;;;;;;;;6230230;28;20081;-79
2021/06/01 23:50:57;;;;;;;5.32;2.92;;;;;;;;;;6226558;28;20048;-80
2021/06/01 23:53:58;;;;;;;3.67;2.80;;;;;;;;;;6230747;28;20101;-79
2021/06/01 23:57:01;;;;;;;3.50;2.63;;;;;;;;;;6249797;28;20046;-79
